Time;durP1;ratioP1;P1;durP2;ratioP2;P2;SDS_P1;SDS_P2;PMS_P1;PMS_P2;Temp;Humidity;BMP_temperature;BMP_pressure;BME280_temperature;BME280_humidity;BME280_pressure;Samples;Min_cycle;Max_cycle;Signal;HPM_P1;HPM_P2
2023/03/18 00:00:26;;;;;;;;;;;11.20;99.90;;;;;;5068528;28;1135;-69
2023/03/18 00:02:51;;;;;;;;;;;11.10;99.90;;;;;;5050656;28;1222;-69
2023/03/18 00:05:18;;;;;;;;;;;11.20;99.90;;;;;;5067673;28;1205;-69
2023/03/18 00:07:46;;;;;;;;;;;11.20;99.90;;;;;;5062859;28;1120;-69
2023/03/18 00:10:12;;;;;;;;;;;11.20;99.90;;;;;;5065138;28;1368;-69
2023/03/18 00:12:39;;;;;;;;;;;11.10;99.90;;;;;;5045330;28;1165;-69
2023/03/18 00:15:06;;;;;;;;;;;11.10;99.90;;;;;;5050454;28;1339;-69
2023/03/18 00:17:32;;;;;;;;;;;11.10;99.90;;;;;;5068920;28;1121;-69
2023/03/18 00:20:04;;;;;;;;;;;11.10;99.90;;;;;;5067633;28;1910;-69
2023/03/18 00:22:32;;;;;;;;;;;11.10;99.90;;;;;;5060836;28;1105;-69
2023/03/18 00:24:58;;;;;;;;;;;11.00;99.90;;;;;;5068501;28;1387;-69
2023/03/18 00:27:23;;;;;;;;;;;11.10;99.90;;;;;;5067800;28;1168;-69
2023/03/18 00:29:50;;;;;;;;;;;11.10;99.90;;;;;;5072468;28;1124;-69
2023/03/18 00:32:16;;;;;;;;;;;11.10;99.90;;;;;;5064030;28;1111;-69
2023/03/18 00:34:41;;;;;;;;;;;11.10;99.90;;;;;;5080863;28;1188;-69
2023/03/18 00:37:09;;;;;;;;;;;11.10;99.90;;;;;;5063915;28;1410;-69
2023/03/18 00:39:35;;;;;;;;;;;11.10;99.90;;;;;;5080206;28;1914;-69
2023/03/18 00:42:09;;;;;;;;;;;11.10;99.90;;;;;;5060211;28;1287;-69
2023/03/18 00:44:34;;;;;;;;;;;11.10;99.90;;;;;;5081041;28;1275;-69
2023/03/18 00:47:00;;;;;;;;;;;11.10;99.90;;;;;;5072375;28;1132;-69
2023/03/18 00:49:26;;;;;;;;;;;11.00;99.90;;;;;;5060283;28;1379;-69
2023/03/18 00:51:52;;;;;;;;;;;11.00;99.90;;;;;;5053444;28;1129;-69
2023/03/18 00:54:19;;;;;;;;;;;10.90;99.90;;;;;;5061573;28;1121;-69
2023/03/18 00:56:47;;;;;;;;;;;10.90;99.90;;;;;;5068319;28;1196;-69
2023/03/18 00:59:12;;;;;;;;;;;10.90;99.90;;;;;;5070979;28;1910;-69
2023/03/18 01:01:39;;;;;;;;;;;10.80;99.90;;;;;;5052745;28;1098;-69
2023/03/18 01:04:05;;;;;;;;;;;10.80;99.90;;;;;;5071640;28;1187;-69
2023/03/18 01:06:32;;;;;;;;;;;10.80;99.90;;;;;;5075387;28;1069;-69
2023/03/18 01:09:00;;;;;;;;;;;10.80;99.90;;;;;;5060350;28;1125;-69
2023/03/18 01:11:26;;;;;;;;;;;10.80;99.90;;;;;;5063427;28;1462;-69
2023/03/18 01:13:52;;;;;;;;;;;10.80;99.90;;;;;;5051221;28;1157;-69
2023/03/18 01:16:18;;;;;;;;;;;10.70;99.90;;;;;;5052360;28;1129;-69
2023/03/18 01:18:44;;;;;;;;;;;10.80;99.90;;;;;;5071373;28;1913;-69
2023/03/18 01:21:10;;;;;;;;;;;10.80;99.90;;;;;;5053303;28;1149;-69
2023/03/18 01:23:42;;;;;;;;;;;10.80;99.90;;;;;;5053878;28;1129;-69
2023/03/18 01:26:09;;;;;;;;;;;10.70;99.90;;;;;;5036578;28;1100;-69
2023/03/18 01:28:38;;;;;;;;;;;10.60;99.90;;;;;;5052455;28;1484;-69
2023/03/18 01:31:04;;;;;;;;;;;10.60;99.90;;;;;;5055810;28;1548;-69
2023/03/18 01:33:30;;;;;;;;;;;;;;;;;;5044194;28;1322;-69
2023/03/18 01:35:56;;;;;;;;;;;;;;;;;;5062782;28;1295;-69
2023/03/18 01:38:26;;;;;;;;;;;;;;;;;;5063060;28;1965;-69
2023/03/18 01:40:53;;;;;;;;;;;10.90;99.90;;;;;;5063023;28;1081;-69
2023/03/18 01:43:22;;;;;;;;;;;10.40;99.90;;;;;;5056032;28;1223;-69
2023/03/18 01:45:49;;;;;;;;;;;;;;;;;;5052983;28;1152;-69
2023/03/18 01:48:16;;;;;;;;;;;9.90;99.90;;;;;;5035993;28;1206;-69
2023/03/18 01:50:43;;;;;;;;;;;9.80;99.90;;;;;;5057271;28;1228;-69
2023/03/18 01:53:11;;;;;;;;;;;9.70;99.90;;;;;;5080658;28;1278;-69
2023/03/18 01:55:37;;;;;;;;;;;9.50;99.90;;;;;;5055520;28;1354;-68
2023/03/18 01:58:07;;;;;;;;;;;9.50;99.90;;;;;;5051205;28;1898;-69
2023/03/18 02:00:37;;;;;;;;;;;9.40;99.90;;;;;;5052510;28;1100;-69
2023/03/18 02:03:03;;;;;;;;;;;9.30;99.90;;;;;;5067579;28;1153;-69
2023/03/18 02:05:29;;;;;;;;;;;9.40;99.90;;;;;;5051675;28;1121;-69
2023/03/18 02:07:55;;;;;;;;;;;9.40;99.90;;;;;;5058647;28;1177;-69
2023/03/18 02:10:26;;;;;;;;;;;9.40;99.90;;;;;;5047205;28;1205;-69
2023/03/18 02:12:57;;;;;;;;;;;9.30;99.90;;;;;;5049173;28;1064;-69
2023/03/18 02:15:28;;;;;;;;;;;9.10;99.90;;;;;;5052306;28;1105;-69
2023/03/18 02:17:58;;;;;;;;;;;8.90;99.90;;;;;;5051708;28;1155;-69
2023/03/18 02:20:24;;;;;;;;;;;8.80;99.90;;;;;;5034406;28;1911;-69
2023/03/18 02:22:53;;;;;;;;;;;8.70;99.90;;;;;;5069814;28;1143;-69
2023/03/18 02:25:32;;;;;;;;;;;8.80;99.90;;;;;;5051097;28;1236;-69
2023/03/18 02:28:02;;;;;;;;;;;8.90;99.90;;;;;;5041141;28;1580;-69
2023/03/18 02:30:33;;;;;;;;;;;9.00;99.90;;;;;;5051951;28;1117;-69
2023/03/18 02:33:01;;;;;;;;;;;7.80;99.90;;;;;;5051193;28;1137;-69
2023/03/18 02:35:28;;;;;;;;;;;8.90;99.90;;;;;;5048727;28;1186;-69
2023/03/18 02:37:56;;;;;;;;;;;8.80;99.90;;;;;;5051603;28;1302;-69
2023/03/18 02:40:22;;;;;;;;;;;8.60;99.90;;;;;;5068951;28;1910;-69
2023/03/18 02:42:48;;;;;;;;;;;8.50;99.90;;;;;;5050827;28;1101;-69
2023/03/18 02:45:29;;;;;;;;;;;8.40;99.90;;;;;;5069599;28;1077;-69
2023/03/18 02:48:09;;;;;;;;;;;8.30;99.90;;;;;;5068497;28;1183;-69
2023/03/18 02:50:34;;;;;;;;;;;8.30;99.90;;;;;;5067484;28;1109;-69
2023/03/18 02:53:02;;;;;;;;;;;8.20;99.90;;;;;;5064987;28;1160;-69
2023/03/18 02:55:28;;;;;;;;;;;8.20;99.90;;;;;;5068499;28;1136;-68
2023/03/18 02:57:54;;;;;;;;;;;8.10;99.90;;;;;;5069283;28;1125;-69
2023/03/18 03:00:20;;;;;;;;;;;8.10;99.90;;;;;;5050697;28;1910;-68
2023/03/18 03:02:46;;;;;;;;;;;8.00;99.90;;;;;;5051135;28;1159;-69
2023/03/18 03:05:12;;;;;;;;;;;7.90;99.90;;;;;;5069253;28;1164;-69
2023/03/18 03:07:37;;;;;;;;;;;8.00;99.90;;;;;;5081242;28;1101;-68
2023/03/18 03:10:06;;;;;;;;;;;8.00;99.90;;;;;;5045575;28;1301;-68
2023/03/18 03:12:32;;;;;;;;;;;7.90;99.90;;;;;;5049651;28;1124;-68
2023/03/18 03:14:58;;;;;;;;;;;7.90;99.90;;;;;;5050496;28;1086;-68
2023/03/18 03:17:26;;;;;;;;;;;8.00;99.90;;;;;;5051387;28;1132;-68
2023/03/18 03:19:52;;;;;;;;;;;8.00;99.90;;;;;;5060295;28;1906;-68
2023/03/18 03:22:18;;;;;;;;;;;8.00;99.90;;;;;;5050404;28;1103;-69
2023/03/18 03:24:45;;;;;;;;;;;8.00;99.90;;;;;;5050967;28;1286;-68
2023/03/18 03:27:12;;;;;;;;;;;8.10;99.90;;;;;;5053476;28;1170;-68
2023/03/18 03:29:38;;;;;;;;;;;8.10;99.90;;;;;;5050571;28;1005;-68
2023/03/18 03:32:04;;;;;;;;;;;8.10;99.90;;;;;;5051141;28;1110;-68
2023/03/18 03:34:30;;;;;;;;;;;8.10;99.90;;;;;;5068698;28;1136;-69
2023/03/18 03:36:55;;;;;;;;;;;8.10;99.90;;;;;;5067845;28;1121;-69
2023/03/18 03:39:24;;;;;;;;;;;8.20;99.90;;;;;;5051191;28;1973;-68
2023/03/18 03:41:51;;;;;;;;;;;8.10;99.90;;;;;;5050279;28;1022;-69
2023/03/18 03:44:18;;;;;;;;;;;8.10;99.90;;;;;;5067884;28;1157;-68
2023/03/18 03:46:47;;;;;;;;;;;8.10;99.90;;;;;;5051031;28;1101;-69
2023/03/18 03:49:13;;;;;;;;;;;8.20;99.90;;;;;;5073538;28;1131;-68
2023/03/18 03:51:39;;;;;;;;;;;8.20;99.90;;;;;;5058671;28;1129;-68
2023/03/18 03:54:05;;;;;;;;;;;8.30;99.90;;;;;;5059440;28;1223;-69
2023/03/18 03:56:31;;;;;;;;;;;8.30;99.90;;;;;;5083856;28;1208;-68
2023/03/18 03:58:57;;;;;;;;;;;8.30;99.90;;;;;;5067940;28;1934;-68
2023/03/18 04:01:30;;;;;;;;;;;8.40;99.90;;;;;;5048824;28;1114;-69
2023/03/18 04:03:59;;;;;;;;;;;8.30;99.90;;;;;;5057978;28;1143;-69
2023/03/18 04:06:25;;;;;;;;;;;8.40;99.90;;;;;;5076648;28;1172;-69
2023/03/18 04:08:58;;;;;;;;;;;8.30;99.90;;;;;;5062242;28;1101;-68
2023/03/18 04:11:24;;;;;;;;;;;8.30;99.90;;;;;;5048627;28;1372;-69
2023/03/18 04:13:51;;;;;;;;;;;8.40;99.90;;;;;;5054881;28;1473;-69
2023/03/18 04:16:17;;;;;;;;;;;8.30;99.90;;;;;;5054491;28;1133;-69
2023/03/18 04:18:43;;;;;;;;;;;8.30;99.90;;;;;;5053574;28;1910;-69
2023/03/18 04:21:10;;;;;;;;;;;8.30;99.90;;;;;;5071819;28;1184;-69
2023/03/18 04:23:46;;;;;;;;;;;8.30;99.90;;;;;;5054342;28;1152;-69
2023/03/18 04:26:11;;;;;;;;;;;8.20;99.90;;;;;;5053589;28;1240;-69
2023/03/18 04:28:37;;;;;;;;;;;8.20;99.90;;;;;;5053657;28;1330;-69
2023/03/18 04:31:06;;;;;;;;;;;8.10;99.90;;;;;;5054066;28;1325;-69
2023/03/18 04:33:32;;;;;;;;;;;8.00;99.90;;;;;;5071415;28;1076;-68
2023/03/18 04:35:58;;;;;;;;;;;8.00;99.90;;;;;;5071628;28;1156;-69
2023/03/18 04:38:27;;;;;;;;;;;8.00;99.90;;;;;;5053627;28;1965;-68
2023/03/18 04:40:53;;;;;;;;;;;8.00;99.90;;;;;;5053307;28;1152;-69
2023/03/18 04:43:19;;;;;;;;;;;7.90;99.90;;;;;;5054082;28;1176;-69
2023/03/18 04:45:47;;;;;;;;;;;7.90;99.90;;;;;;5053855;28;1094;-68
2023/03/18 04:48:13;;;;;;;;;;;7.90;99.90;;;;;;5047012;28;1311;-69
2023/03/18 04:50:40;;;;;;;;;;;7.80;99.90;;;;;;5053781;28;1188;-69
2023/03/18 04:53:10;;;;;;;;;;;7.90;99.90;;;;;;5053228;28;1164;-68
2023/03/18 04:55:37;;;;;;;;;;;7.90;99.90;;;;;;5052990;28;1125;-68
2023/03/18 04:58:06;;;;;;;;;;;7.90;99.90;;;;;;5053493;28;1334;-69
2023/03/18 05:00:38;;;;;;;;;;;7.90;99.90;;;;;;5053086;28;1096;-69
2023/03/18 05:03:16;;;;;;;;;;;7.80;99.90;;;;;;5053116;28;1130;-69
2023/03/18 05:05:42;;;;;;;;;;;7.80;99.90;;;;;;5040683;28;1121;-69
2023/03/18 05:08:11;;;;;;;;;;;7.90;99.90;;;;;;5065428;28;1118;-69
2023/03/18 05:10:39;;;;;;;;;;;8.00;99.90;;;;;;5045789;28;1281;-69
2023/03/18 05:13:05;;;;;;;;;;;8.00;99.90;;;;;;5052488;28;1266;-69
2023/03/18 05:15:33;;;;;;;;;;;8.00;99.90;;;;;;5034856;28;1181;-69
2023/03/18 05:17:59;;;;;;;;;;;7.90;99.90;;;;;;5053089;28;975;-69
2023/03/18 05:20:26;;;;;;;;;;;8.00;99.90;;;;;;5053255;28;1918;-69
2023/03/18 05:22:53;;;;;;;;;;;8.00;99.90;;;;;;5057193;28;1216;-69
2023/03/18 05:25:38;;;;;;;;;;;8.00;99.90;;;;;;5052583;28;1141;-69
2023/03/18 05:28:04;;;;;;;;;;;8.00;99.90;;;;;;5052407;28;1465;-69
2023/03/18 05:30:41;;;;;;;;;;;8.00;99.90;;;;;;5052510;28;1137;-69
2023/03/18 05:33:11;;;;;;;;;;;8.00;99.90;;;;;;5052474;28;1489;-69
2023/03/18 05:35:43;;;;;;;;;;;8.00;99.90;;;;;;5052139;28;1216;-69
2023/03/18 05:38:09;;;;;;;;;;;8.10;99.90;;;;;;5070150;28;1116;-69
2023/03/18 05:40:35;;;;;;;;;;;8.10;99.90;;;;;;5059482;28;1914;-69
2023/03/18 05:43:07;;;;;;;;;;;8.00;99.90;;;;;;5052045;28;1163;-69
2023/03/18 05:45:38;;;;;;;;;;;8.00;99.90;;;;;;5052669;28;1497;-69
2023/03/18 05:48:05;;;;;;;;;;;8.00;99.90;;;;;;5049294;28;1189;-69
2023/03/18 05:50:39;;;;;;;;;;;8.00;99.90;;;;;;5039830;28;1094;-68
2023/03/18 05:53:10;;;;;;;;;;;8.00;99.90;;;;;;5052417;28;1113;-69
2023/03/18 05:55:39;;;;;;;;;;;7.90;99.90;;;;;;5052028;28;1294;-69
2023/03/18 05:58:05;;;;;;;;;;;8.00;99.90;;;;;;5051224;28;1125;-69
2023/03/18 06:00:33;;;;;;;;;;;8.00;99.90;;;;;;5052593;28;1926;-68
2023/03/18 06:03:00;;;;;;;;;;;8.10;99.90;;;;;;5049123;28;1114;-69
2023/03/18 06:05:27;;;;;;;;;;;8.10;99.90;;;;;;5051742;28;1093;-69
2023/03/18 06:07:53;;;;;;;;;;;8.10;99.90;;;;;;5065386;28;1018;-68
2023/03/18 06:10:20;;;;;;;;;;;8.10;99.90;;;;;;5046895;28;1376;-69
2023/03/18 06:12:48;;;;;;;;;;;8.20;99.90;;;;;;5049780;28;1098;-69
2023/03/18 06:15:16;;;;;;;;;;;8.10;99.90;;;;;;5034540;28;1184;-68
2023/03/18 06:17:41;;;;;;;;;;;8.10;99.90;;;;;;5051246;28;1116;-69
2023/03/18 06:20:08;;;;;;;;;;;8.20;99.90;;;;;;5052006;28;1906;-69
2023/03/18 06:22:34;;;;;;;;;;;8.20;99.90;;;;;;5070808;28;1141;-69
2023/03/18 06:25:00;;;;;;;;;;;8.20;99.90;;;;;;5078641;28;1279;-69
2023/03/18 06:27:25;;;;;;;;;;;8.20;99.90;;;;;;5059665;28;1200;-69
2023/03/18 06:29:55;;;;;;;;;;;8.30;99.90;;;;;;5052162;28;1048;-69
2023/03/18 06:32:21;;;;;;;;;;;8.30;99.90;;;;;;5050455;28;1169;-69
2023/03/18 06:34:47;;;;;;;;;;;8.40;99.90;;;;;;5051452;28;1132;-69
2023/03/18 06:37:14;;;;;;;;;;;8.40;99.90;;;;;;5051913;28;1117;-69
2023/03/18 06:39:40;;;;;;;;;;;8.50;99.90;;;;;;5050839;28;1914;-69
2023/03/18 06:42:08;;;;;;;;;;;8.50;99.90;;;;;;5048292;28;1125;-69
2023/03/18 06:44:41;;;;;;;;;;;8.60;99.90;;;;;;5051955;28;1152;-69
2023/03/18 06:47:16;;;;;;;;;;;8.70;99.90;;;;;;5038468;28;1180;-69
2023/03/18 06:49:49;;;;;;;;;;;8.70;99.90;;;;;;5051917;28;1101;-69
2023/03/18 06:52:20;;;;;;;;;;;8.70;99.90;;;;;;5061120;28;1238;-69
2023/03/18 06:54:48;;;;;;;;;;;8.70;99.90;;;;;;5050324;28;1626;-69
2023/03/18 06:57:15;;;;;;;;;;;8.70;99.90;;;;;;5051324;28;1386;-69
2023/03/18 06:59:41;;;;;;;;;;;8.80;99.90;;;;;;5049940;28;1989;-69
2023/03/18 07:02:08;;;;;;;;;;;8.80;99.90;;;;;;5034550;28;1155;-69
2023/03/18 07:04:34;;;;;;;;;;;8.80;99.90;;;;;;5051615;28;1176;-69
2023/03/18 07:07:00;;;;;;;;;;;8.80;99.90;;;;;;5059219;28;1085;-69
2023/03/18 07:09:26;;;;;;;;;;;8.80;99.90;;;;;;5054445;28;1187;-69
2023/03/18 07:11:56;;;;;;;;;;;8.90;99.90;;;;;;5046939;28;1360;-69
2023/03/18 07:14:22;;;;;;;;;;;9.00;99.90;;;;;;5068205;28;1160;-69
2023/03/18 07:16:48;;;;;;;;;;;9.10;99.90;;;;;;5050499;28;1158;-69
2023/03/18 07:19:14;;;;;;;;;;;9.20;99.90;;;;;;5034345;28;1918;-69
2023/03/18 07:21:42;;;;;;;;;;;9.40;99.90;;;;;;5050382;28;1093;-69
2023/03/18 07:24:10;;;;;;;;;;;9.50;99.90;;;;;;5033894;28;1172;-69
2023/03/18 07:26:36;;;;;;;;;;;9.50;99.90;;;;;;5050904;28;1135;-69
2023/03/18 07:29:02;;;;;;;;;;;9.60;99.90;;;;;;5067860;28;1393;-69
2023/03/18 07:31:29;;;;;;;;;;;9.70;99.90;;;;;;5068889;28;1081;-70
2023/03/18 07:33:56;;;;;;;;;;;9.70;99.90;;;;;;5068997;28;1282;-69
2023/03/18 07:36:22;;;;;;;;;;;9.70;99.90;;;;;;5057383;28;1171;-69
2023/03/18 07:38:48;;;;;;;;;;;9.70;99.90;;;;;;5070417;28;1906;-69
2023/03/18 07:41:14;;;;;;;;;;;9.80;99.90;;;;;;5055114;28;1180;-69
2023/03/18 07:43:40;;;;;;;;;;;9.90;99.90;;;;;;5069461;28;1141;-69
2023/03/18 07:46:06;;;;;;;;;;;10.00;99.90;;;;;;5062668;28;1109;-69
2023/03/18 07:48:33;;;;;;;;;;;10.20;99.90;;;;;;5072998;28;1121;-69
2023/03/18 07:50:59;;;;;;;;;;;10.40;99.90;;;;;;5072216;28;1078;-69
2023/03/18 07:53:26;;;;;;;;;;;10.60;99.90;;;;;;5072273;28;1172;-69
2023/03/18 07:55:52;;;;;;;;;;;10.80;99.90;;;;;;5076515;28;1235;-70
2023/03/18 07:58:18;;;;;;;;;;;11.00;99.90;;;;;;5075836;28;1274;-70
2023/03/18 08:00:44;;;;;;;;;;;11.20;99.90;;;;;;5072029;28;1973;-69
2023/03/18 08:03:10;;;;;;;;;;;11.20;99.90;;;;;;5070094;28;1115;-69
2023/03/18 08:05:36;;;;;;;;;;;11.30;99.90;;;;;;5077916;28;1178;-69
2023/03/18 08:08:03;;;;;;;;;;;11.50;99.90;;;;;;5081284;28;1267;-69
2023/03/18 08:10:29;;;;;;;;;;;11.60;99.90;;;;;;5065219;28;1348;-69
2023/03/18 08:12:55;;;;;;;;;;;11.60;99.90;;;;;;5070793;28;1161;-69
2023/03/18 08:15:21;;;;;;;;;;;11.70;99.90;;;;;;5072200;28;1168;-69
2023/03/18 08:17:47;;;;;;;;;;;11.70;99.90;;;;;;5071756;28;1127;-69
2023/03/18 08:20:13;;;;;;;;;;;11.70;99.90;;;;;;5068725;28;1910;-69
2023/03/18 08:22:38;;;;;;;;;;;11.70;99.90;;;;;;5071841;28;1144;-69
2023/03/18 08:25:04;;;;;;;;;;;11.60;99.90;;;;;;5053360;28;1321;-70
2023/03/18 08:27:30;;;;;;;;;;;11.50;99.90;;;;;;5053473;28;1184;-69
2023/03/18 08:29:56;;;;;;;;;;;11.50;99.90;;;;;;5072001;28;1160;-70
2023/03/18 08:32:21;;;;;;;;;;;11.40;99.90;;;;;;5071549;28;1179;-70
2023/03/18 08:34:47;;;;;;;;;;;11.40;99.90;;;;;;5072004;28;1083;-69
2023/03/18 08:37:13;;;;;;;;;;;11.50;99.90;;;;;;5066648;28;3174;-70
2023/03/18 08:39:40;;;;;;;;;;;11.50;99.90;;;;;;5066852;28;3578;-69
2023/03/18 08:42:05;;;;;;;;;;;11.50;99.90;;;;;;5072613;28;3305;-70
2023/03/18 08:44:32;;;;;;;;;;;11.40;99.90;;;;;;5062910;28;1101;-70
2023/03/18 08:46:57;;;;;;;;;;;11.40;99.90;;;;;;5069494;28;1134;-70
2023/03/18 08:49:24;;;;;;;;;;;11.40;99.90;;;;;;5071527;28;1115;-70
2023/03/18 08:51:50;;;;;;;;;;;11.40;99.90;;;;;;5071369;28;1144;-70
2023/03/18 08:54:16;;;;;;;;;;;11.30;99.90;;;;;;5077947;28;1037;-70
2023/03/18 08:56:42;;;;;;;;;;;11.20;99.90;;;;;;5081838;28;3207;-69
2023/03/18 08:59:08;;;;;;;;;;;11.30;99.90;;;;;;5076862;28;1967;-70
2023/03/18 09:01:34;;;;;;;;;;;11.30;99.90;;;;;;5074401;28;1250;-70
2023/03/18 09:04:00;;;;;;;;;;;11.40;99.90;;;;;;5068574;28;1175;-70
2023/03/18 09:06:27;;;;;;;;;;;11.50;99.90;;;;;;5072801;28;1133;-69
2023/03/18 09:08:53;;;;;;;;;;;11.60;99.90;;;;;;5064458;28;1160;-70
2023/03/18 09:11:19;;;;;;;;;;;11.50;99.90;;;;;;5082683;28;1263;-70
2023/03/18 09:13:44;;;;;;;;;;;11.40;99.90;;;;;;5075753;28;1208;-69
2023/03/18 09:16:11;;;;;;;;;;;11.40;99.90;;;;;;5081461;28;1196;-69
2023/03/18 09:18:36;;;;;;;;;;;11.40;99.90;;;;;;5079402;28;1975;-69
2023/03/18 09:21:03;;;;;;;;;;;11.40;99.90;;;;;;5069220;28;1295;-69
2023/03/18 09:23:31;;;;;;;;;;;11.40;99.90;;;;;;5070743;28;1192;-70
2023/03/18 09:25:57;;;;;;;;;;;11.40;99.90;;;;;;5070912;28;1160;-69
2023/03/18 09:28:23;;;;;;;;;;;11.20;99.90;;;;;;5040323;28;1262;-69
2023/03/18 09:30:49;;;;;;;;;;;11.20;99.90;;;;;;5069341;28;1069;-69
2023/03/18 09:33:15;;;;;;;;;;;11.20;99.90;;;;;;5071038;28;1089;-69
2023/03/18 09:35:41;;;;;;;;;;;11.20;99.90;;;;;;5051735;28;1094;-69
2023/03/18 09:38:11;;;;;;;;;;;11.30;99.90;;;;;;5070459;28;1120;-70
2023/03/18 09:40:41;;;;;;;;;;;11.40;99.90;;;;;;5069824;28;1914;-69
2023/03/18 09:43:19;;;;;;;;;;;11.60;99.90;;;;;;5062968;28;1113;-69
2023/03/18 09:46:02;;;;;;;;;;;11.80;99.90;;;;;;5058898;28;1168;-69
2023/03/18 09:48:40;;;;;;;;;;;11.90;99.90;;;;;;5069519;28;1101;-69
2023/03/18 09:51:19;;;;;;;;;;;12.10;99.90;;;;;;5070590;28;1108;-69
2023/03/18 09:53:49;;;;;;;;;;;12.20;99.90;;;;;;5058235;28;1160;-69
2023/03/18 09:56:17;;;;;;;;;;;12.30;99.90;;;;;;5075128;28;1303;-70
2023/03/18 09:58:53;;;;;;;;;;;12.50;99.90;;;;;;5070227;28;1976;-69
2023/03/18 10:01:21;;;;;;;;;;;12.60;99.90;;;;;;5069831;28;1092;-69
2023/03/18 10:03:52;;;;;;;;;;;12.80;99.90;;;;;;5081622;28;1129;-69
2023/03/18 10:06:19;;;;;;;;;;;12.90;99.90;;;;;;5074142;28;3248;-69
2023/03/18 10:09:00;;;;;;;;;;;12.90;99.90;;;;;;5070749;28;3194;-70
2023/03/18 10:11:26;;;;;;;;;;;13.10;99.90;;;;;;5068737;28;1276;-69
2023/03/18 10:13:59;;;;;;;;;;;13.10;99.90;;;;;;5069149;28;2814;-70
2023/03/18 10:16:28;;;;;;;;;;;13.10;99.90;;;;;;5055907;28;1087;-70
2023/03/18 10:18:53;;;;;;;;;;;13.10;99.90;;;;;;5057864;28;3398;-70
2023/03/18 10:21:41;;;;;;;;;;;13.10;99.90;;;;;;5070046;28;2919;-69
2023/03/18 10:24:10;;;;;;;;;;;13.30;99.90;;;;;;5031290;28;3007;-69
2023/03/18 10:26:47;;;;;;;;;;;13.60;99.90;;;;;;5060649;28;1178;-70
2023/03/18 10:29:27;;;;;;;;;;;13.70;99.90;;;;;;5069136;28;1425;-70
2023/03/18 10:32:00;;;;;;;;;;;14.00;99.90;;;;;;5063233;28;1089;-70
2023/03/18 10:34:32;;;;;;;;;;;14.80;99.90;;;;;;5068907;28;1168;-70
2023/03/18 10:37:05;;;;;;;;;;;15.30;99.90;;;;;;5069162;28;2794;-70
2023/03/18 10:39:32;;;;;;;;;;;;;;;;;;5064897;28;1938;-70
2023/03/18 10:42:00;;;;;;;;;;;16.20;99.90;;;;;;5066302;28;1145;-69
2023/03/18 10:44:31;;;;;;;;;;;16.70;99.90;;;;;;5069291;28;1076;-70
2023/03/18 10:47:00;;;;;;;;;;;17.50;99.90;;;;;;5068474;28;1142;-69
2023/03/18 10:49:30;;;;;;;;;;;17.80;99.90;;;;;;5069033;28;1116;-69
2023/03/18 10:51:58;;;;;;;;;;;17.90;99.90;;;;;;5068681;28;1125;-70
2023/03/18 10:54:34;;;;;;;;;;;17.90;99.90;;;;;;5069594;28;1110;-69
2023/03/18 10:57:00;;;;;;;;;;;17.70;99.90;;;;;;5069046;28;1082;-70
2023/03/18 10:59:27;;;;;;;;;;;17.50;99.90;;;;;;5068700;28;1995;-69
2023/03/18 11:01:56;;;;;;;;;;;17.30;99.90;;;;;;5078585;28;1079;-70
2023/03/18 11:04:23;;;;;;;;;;;17.10;99.90;;;;;;5050923;28;1165;-70
2023/03/18 11:06:48;;;;;;;;;;;16.80;99.90;;;;;;5073753;28;1181;-70
2023/03/18 11:09:15;;;;;;;;;;;17.10;99.90;;;;;;5061264;28;1192;-70
2023/03/18 11:11:42;;;;;;;;;;;17.20;99.90;;;;;;5079796;28;1367;-70
2023/03/18 11:14:12;;;;;;;;;;;16.80;99.90;;;;;;5056510;28;1287;-70
2023/03/18 11:16:39;;;;;;;;;;;16.70;99.90;;;;;;5074281;28;1188;-70
2023/03/18 11:19:07;;;;;;;;;;;16.20;99.90;;;;;;5060641;28;1910;-70
2023/03/18 11:21:34;;;;;;;;;;;16.50;99.90;;;;;;5061214;28;1262;-71
2023/03/18 11:24:07;;;;;;;;;;;17.10;99.90;;;;;;5073375;28;1194;-70
2023/03/18 11:26:54;;;;;;;;;;;17.20;99.90;;;;;;5059361;28;1071;-70
2023/03/18 11:29:23;;;;;;;;;;;18.10;99.90;;;;;;5068796;28;1862;-70
2023/03/18 11:31:57;;;;;;;;;;;19.20;99.90;;;;;;5069194;28;1093;-70
2023/03/18 11:34:23;;;;;;;;;;;;;;;;;;5067208;28;1154;-70
2023/03/18 11:36:54;;;;;;;;;;;21.10;99.90;;;;;;5050610;28;1172;-70
2023/03/18 11:39:22;;;;;;;;;;;20.50;99.90;;;;;;5072538;28;1977;-70
2023/03/18 11:41:48;;;;;;;;;;;20.40;99.90;;;;;;5078378;28;1151;-70
2023/03/18 11:44:16;;;;;;;;;;;20.50;99.90;;;;;;5060727;28;1231;-70
2023/03/18 11:46:48;;;;;;;;;;;20.70;99.90;;;;;;5079992;28;1302;-70
2023/03/18 11:49:16;;;;;;;;;;;20.80;99.90;;;;;;5077717;28;1105;-70
2023/03/18 11:51:51;;;;;;;;;;;20.90;99.90;;;;;;5068447;28;1116;-70
2023/03/18 11:54:23;;;;;;;;;;;20.60;99.90;;;;;;5069062;28;1117;-70
2023/03/18 11:56:54;;;;;;;;;;;19.50;99.90;;;;;;5067603;28;1211;-70
2023/03/18 11:59:19;;;;;;;;;;;18.60;99.90;;;;;;5068705;28;1997;-70
2023/03/18 12:01:45;;;;;;;;;;;17.70;99.90;;;;;;5068291;28;1364;-70
2023/03/18 12:04:24;;;;;;;;;;;17.20;99.90;;;;;;5067538;28;1124;-70
2023/03/18 12:07:08;;;;;;;;;;;16.70;99.90;;;;;;5075666;28;1100;-70
2023/03/18 12:09:40;;;;;;;;;;;16.40;99.90;;;;;;5067400;28;1185;-70
2023/03/18 12:12:16;;;;;;;;;;;15.50;99.90;;;;;;5075834;28;1589;-70
2023/03/18 12:15:00;;;;;;;;;;;15.20;99.90;;;;;;5078404;28;1239;-70
2023/03/18 12:17:29;;;;;;;;;;;;;;;;;;5074743;28;1232;-70
2023/03/18 12:19:55;;;;;;;;;;;;;;;;;;5068080;28;1919;-70
2023/03/18 12:22:21;;;;;;;;;;;;;;;;;;5068829;28;1117;-70
2023/03/18 12:24:53;;;;;;;;;;;14.10;99.90;;;;;;5051583;28;1341;-70
2023/03/18 12:27:19;;;;;;;;;;;;;;;;;;5066109;28;1171;-70
2023/03/18 12:29:45;;;;;;;;;;;;;;;;;;5072234;28;1156;-70
2023/03/18 12:32:11;;;;;;;;;;;;;;;;;;5071521;28;1085;-70
2023/03/18 12:34:37;;;;;;;;;;;;;;;;;;5071958;28;1112;-70
2023/03/18 12:37:03;;;;;;;;;;;;;;;;;;5053651;28;1109;-70
2023/03/18 12:39:30;;;;;;;;;;;;;;;;;;5060602;28;3251;-70
2023/03/18 12:41:56;;;;;;;;;;;;;;;;;;5068325;28;1176;-70
2023/03/18 12:44:22;;;;;;;;;;;;;;;;;;5052578;28;1169;-70
2023/03/18 12:46:48;;;;;;;;;;;;;;;;;;5076523;28;3174;-71
2023/03/18 12:49:14;;;;;;;;;;;;;;;;;;5077572;28;3274;-70
2023/03/18 12:51:42;;;;;;;;;;;19.60;99.90;;;;;;5044915;28;1266;-70
2023/03/18 12:54:14;;;;;;;;;;;19.50;99.90;;;;;;5079855;28;1225;-70
2023/03/18 12:56:42;;;;;;;;;;;;;;;;;;5075359;28;2483;-71
2023/03/18 12:59:08;;;;;;;;;;;;;;;;;;5031977;28;1914;-71
2023/03/18 13:01:46;;;;;;;;;;;20.20;99.90;;;;;;5068143;28;1613;-70
2023/03/18 13:04:17;;;;;;;;;;;20.50;99.90;;;;;;5080648;28;1484;-71
2023/03/18 13:06:46;;;;;;;;;;;20.20;99.90;;;;;;5064389;28;1075;-71
2023/03/18 13:09:20;;;;;;;;;;;19.70;99.90;;;;;;5077442;28;1225;-70
2023/03/18 13:11:52;;;;;;;;;;;19.40;99.90;;;;;;5070689;28;1613;-70
2023/03/18 13:14:23;;;;;;;;;;;19.20;99.90;;;;;;5070688;28;1097;-70
2023/03/18 13:16:49;;;;;;;;;;;19.40;99.90;;;;;;5071512;28;1172;-71
2023/03/18 13:19:17;;;;;;;;;;;19.90;99.90;;;;;;5070501;28;1890;-71
2023/03/18 13:21:46;;;;;;;;;;;20.30;99.90;;;;;;5081284;28;1104;-71
2023/03/18 13:24:14;;;;;;;;;;;20.30;99.90;;;;;;5070998;28;1109;-70
2023/03/18 13:26:51;;;;;;;;;;;19.40;99.90;;;;;;5070201;28;1037;-70
2023/03/18 13:29:24;;;;;;;;;;;19.90;99.90;;;;;;5052491;28;1461;-70
2023/03/18 13:32:08;;;;;;;;;;;20.20;99.90;;;;;;5071043;28;1175;-71
2023/03/18 13:34:41;;;;;;;;;;;20.40;99.90;;;;;;5052008;28;1254;-71
2023/03/18 13:37:26;;;;;;;;;;;20.60;99.90;;;;;;5070083;28;1173;-70
2023/03/18 13:39:59;;;;;;;;;;;19.80;99.90;;;;;;5059163;28;1910;-70
2023/03/18 13:42:27;;;;;;;;;;;20.10;99.90;;;;;;5077767;28;1231;-70
2023/03/18 13:44:54;;;;;;;;;;;20.70;99.90;;;;;;5058276;28;2386;-71
2023/03/18 13:47:21;;;;;;;;;;;20.50;99.90;;;;;;5071147;28;2089;-71
2023/03/18 13:49:47;;;;;;;;;;;20.30;99.90;;;;;;5078727;28;1327;-71
2023/03/18 13:52:25;;;;;;;;;;;20.10;99.90;;;;;;5063131;28;1212;-71
2023/03/18 13:54:51;;;;;;;;;;;19.40;99.90;;;;;;5071198;28;1351;-71
2023/03/18 13:57:23;;;;;;;;;;;18.90;99.90;;;;;;5076112;28;1220;-71
2023/03/18 13:59:49;;;;;;;;;;;18.10;99.90;;;;;;5070292;28;1970;-71
2023/03/18 14:02:22;;;;;;;;;;;17.60;99.90;;;;;;5051846;28;1262;-71
2023/03/18 14:04:49;;;;;;;;;;;17.60;99.90;;;;;;5068003;28;1309;-71
2023/03/18 14:07:16;;;;;;;;;;;16.90;99.90;;;;;;5081304;28;1066;-71
2023/03/18 14:10:00;;;;;;;;;;;17.00;99.90;;;;;;5070670;28;1246;-71
2023/03/18 14:12:31;;;;;;;;;;;16.40;99.90;;;;;;5069512;28;1183;-71
2023/03/18 14:15:01;;;;;;;;;;;15.80;99.90;;;;;;5070268;28;1112;-71
2023/03/18 14:17:32;;;;;;;;;;;15.90;99.90;;;;;;5069430;28;1099;-71
2023/03/18 14:20:05;;;;;;;;;;;15.80;99.90;;;;;;5070174;28;1909;-71
2023/03/18 14:22:35;;;;;;;;;;;15.80;99.90;;;;;;5035296;28;1134;-71
2023/03/18 14:25:10;;;;;;;;;;;15.80;99.90;;;;;;5051653;28;1190;-71
2023/03/18 14:27:43;;;;;;;;;;;15.50;99.90;;;;;;5069778;28;1140;-71
2023/03/18 14:30:38;;;;;;;;;;;15.90;99.90;;;;;;5050750;28;1882;-71
2023/03/18 14:33:25;;;;;;;;;;;16.00;99.90;;;;;;5069302;28;1855;-71
2023/03/18 14:35:58;;;;;;;;;;;15.90;99.90;;;;;;5056779;28;1226;-72
2023/03/18 14:38:26;;;;;;;;;;;15.90;99.90;;;;;;5046052;28;963;-71
2023/03/18 14:40:54;;;;;;;;;;;16.20;99.90;;;;;;5078136;28;1969;-71
2023/03/18 14:43:28;;;;;;;;;;;16.50;99.90;;;;;;5060297;28;1295;-71
2023/03/18 14:45:55;;;;;;;;;;;16.70;99.90;;;;;;5077541;28;1259;-71
2023/03/18 14:48:28;;;;;;;;;;;16.40;99.90;;;;;;5076201;28;1239;-71
2023/03/18 14:50:55;;;;;;;;;;;16.50;99.90;;;;;;5072244;28;1195;-71